WetterOnline ( https://www.wetteronline.de )

Wetter aktuell Rhön (in 800m)

Aktuelles Wetter: Wasserkuppe (925m)

6-stündlich | Neueste Meldungen
Ortszeit Temperatur Wetter
Mo, 22.04. 8:00 10.3° C fast wolkenlos
Mo, 22.04. 2:00 9.5° C wolkenlos
So, 21.04. 20:00 14.5° C wolkenlos
So, 21.04. 14:00 18.5° C wolkenlos
So, 21.04. 8:00 11.2° C wolkenlos
So, 21.04. 2:00 10.0° C wolkenlos
Sa, 20.04. 20:00 14.3° C fast wolkenlos
Sa, 20.04. 14:00 17.9° C fast wolkenlos
Ortszeit Temperatur Wetter
Mo, 22.04. 10:00 14.1° C leicht bewölkt
Mo, 22.04. 9:50 14.1° C wolkenlos
Mo, 22.04. 9:40 14.2° C wolkenlos
Mo, 22.04. 9:30 13.2° C leicht bewölkt
Mo, 22.04. 9:20 13.2° C wolkenlos
Mo, 22.04. 9:10 13.1° C wolkenlos
Mo, 22.04. 9:00 12.4° C leicht bewölkt
Mo, 22.04. 8:30 11.4° C leicht bewölkt
Mo, 22.04. 8:00 10.3° C fast wolkenlos
Mo, 22.04. 7:30 9.5° C fast wolkenlos
Mo, 22.04. 7:00 8.4° C fast wolkenlos
Ortszeit Relative Feuchte Sichtweite
Mo, 22.04. 8:00 41% 70 km
Mo, 22.04. 2:00 49% 50 km
So, 21.04. 20:00 33% 65 km
So, 21.04. 14:00 27% 50 km
So, 21.04. 8:00 43% 30 km
So, 21.04. 2:00 46% 35 km
Sa, 20.04. 20:00 37% 40 km
Sa, 20.04. 14:00 27% >70 km
Ortszeit Relative Feuchte Sichtweite
Mo, 22.04. 10:00 38% 70 km
Mo, 22.04. 9:50 38% -
Mo, 22.04. 9:40 37% -
Mo, 22.04. 9:30 38% 70 km
Mo, 22.04. 9:20 38% -
Mo, 22.04. 9:10 39% -
Mo, 22.04. 9:00 39% 70 km
Mo, 22.04. 8:30 39% 70 km
Mo, 22.04. 8:00 41% 70 km
Mo, 22.04. 7:30 42% 70 km
Mo, 22.04. 7:00 45% 70 km
Ortszeit Niederschlagsmenge Niederschlagsart
Mo, 22.04. 8:00 0.0 l/m2 in 12 Std. -
Mo, 22.04. 2:00 0.0 l/m2 in 6 Std. -
So, 21.04. 20:00 0.0 l/m2 in 12 Std. -
So, 21.04. 14:00 0.0 l/m2 in 6 Std. -
So, 21.04. 8:00 0.0 l/m2 in 12 Std. -
So, 21.04. 2:00 0.0 l/m2 in 6 Std. -
Sa, 20.04. 20:00 0.0 l/m2 in 12 Std. -
Sa, 20.04. 14:00 0.0 l/m2 in 6 Std. -
Ortszeit Niederschlagsmenge Niederschlagsart
Mo, 22.04. 10:00 0.0 l/m2 in 1 Std. -
Mo, 22.04. 9:50 keine Meldung -
Mo, 22.04. 9:40 keine Meldung -
Mo, 22.04. 9:30 0.0 l/m2 in 1 Std. -
Mo, 22.04. 9:20 keine Meldung -
Mo, 22.04. 9:10 keine Meldung -
Mo, 22.04. 9:00 0.0 l/m2 in 1 Std. -
Mo, 22.04. 8:30 0.0 l/m2 in 1 Std. -
Mo, 22.04. 8:00 0.0 l/m2 in 1 Std. -
Mo, 22.04. 7:30 0.0 l/m2 in 1 Std. -
Mo, 22.04. 7:00 0.0 l/m2 in 1 Std. -
Ortszeit Stärke Spitze Richtung
km/h Bft. km/h Grad Sektor
Mo, 22.04. 8:00 28 4 39 120° SO
Mo, 22.04. 2:00 22 4 36 110° O
So, 21.04. 20:00 13 3 31 140° SO
So, 21.04. 14:00 17 3 31 130° SO
So, 21.04. 8:00 17 3 33 110° O
So, 21.04. 2:00 24 4 44 100° O
Sa, 20.04. 20:00 14 3 29 40° NO
Sa, 20.04. 14:00 13 3 28 110° O
Ortszeit Stärke Spitze Richtung
km/h Bft. km/h Grad Sektor
Mo, 22.04. 10:00 35 5 46 120° SO
Mo, 22.04. 9:50 35 5 - 120° SO
Mo, 22.04. 9:40 35 5 - 120° SO
Mo, 22.04. 9:30 32 5 43 120° SO
Mo, 22.04. 9:20 32 5 - 120° SO
Mo, 22.04. 9:10 32 5 - 120° SO
Mo, 22.04. 9:00 35 5 48 130° SO
Mo, 22.04. 8:30 33 5 46 120° SO
Mo, 22.04. 8:00 28 4 39 120° SO
Mo, 22.04. 7:30 29 5 40 120° SO
Mo, 22.04. 7:00 30 5 37 120° SO
Ortszeit Untergrenze Bedeckung Gattung
total tief tief mittel hoch
Mo, 22.04. 8:00 6000 m 1/8 1/8 - - Ci
Mo, 22.04. 2:00 - 0/8 0/8 - - -
So, 21.04. 20:00 - 0/8 0/8 - - -
So, 21.04. 14:00 - 0/8 0/8 - - -
So, 21.04. 8:00 - 0/8 0/8 - - -
So, 21.04. 2:00 - 0/8 0/8 - - -
Sa, 20.04. 20:00 8100 m 1/8 0/8 - - Ci
Sa, 20.04. 14:00 9000 m 1/8 0/8 - - Ci
Ortszeit Bedeckungsgrad in Achtel und Wolkenuntergrenze
Mo, 22.04. 10:00 2(7800m)
Mo, 22.04. 9:50 keine Wolken
Mo, 22.04. 9:40 keine Wolken
Mo, 22.04. 9:30 2(7800m)
Mo, 22.04. 9:20 keine Wolken
Mo, 22.04. 9:10 keine Wolken
Mo, 22.04. 9:00 2(7800m)
Mo, 22.04. 8:30 2(7800m)
Mo, 22.04. 8:00 1(6000m)
Mo, 22.04. 7:30 1(6000m)
Mo, 22.04. 7:00 1(6000m)
Ortszeit Stationsdruck (hPa) Tendenz (hPa in 3 Std.)
Mo, 22.04. 8:00 908 - 1,1
Mo, 22.04. 2:00 911 - 1,0
So, 21.04. 20:00 912 - 1,3
So, 21.04. 14:00 915 - 1,1
So, 21.04. 8:00 917 - 0,7
So, 21.04. 2:00 919 - 0,9
Sa, 20.04. 20:00 920 - 0,7
Sa, 20.04. 14:00 922 - 0,5
Ortszeit Stationsdruck (hPa) Tendenz (hPa in 3 Std.)
Mo, 22.04. 10:00 908 - 0,6
Mo, 22.04. 9:50 908 keine Meldung
Mo, 22.04. 9:40 908 keine Meldung
Mo, 22.04. 9:30 908 - 0,4
Mo, 22.04. 9:20 908 keine Meldung
Mo, 22.04. 9:10 908 keine Meldung
Mo, 22.04. 9:00 908 - 0,6
Mo, 22.04. 8:30 908 - 0,8
Mo, 22.04. 8:00 908 - 1,1
Mo, 22.04. 7:30 908 - 1,3
Mo, 22.04. 7:00 908 - 1,5
Ortszeit Schneehöhe (cm)
Mo, 22.04. 8:00 0
Mo, 22.04. 2:00 0
So, 21.04. 20:00 0
So, 21.04. 14:00 0
So, 21.04. 8:00 0
So, 21.04. 2:00 0
Sa, 20.04. 20:00 0
Sa, 20.04. 14:00 0
Ortszeit Schneehöhe (cm)
Mo, 22.04. 10:00 -
Mo, 22.04. 9:50 -
Mo, 22.04. 9:40 -
Mo, 22.04. 9:30 -
Mo, 22.04. 9:20 -
Mo, 22.04. 9:10 -
Mo, 22.04. 9:00 -
Mo, 22.04. 8:30 -
Mo, 22.04. 8:00 0
Mo, 22.04. 7:30 -
Mo, 22.04. 7:00 -
Link zu dieser Seite / Seite empfehlen

Das Wetter in ...